sensor_id;sensor_type;location;lat;lon;timestamp;temperature;humidity
20481;DHT22;10399;50.754;3.366;2023-08-17T00:02:13;20.90;99.90
20481;DHT22;10399;50.754;3.366;2023-08-17T00:04:40;20.90;99.90
20481;DHT22;10399;50.754;3.366;2023-08-17T00:07:11;20.90;99.90
20481;DHT22;10399;50.754;3.366;2023-08-17T00:09:43;21.00;99.90
20481;DHT22;10399;50.754;3.366;2023-08-17T00:12:10;21.00;99.90
20481;DHT22;10399;50.754;3.366;2023-08-17T00:14:38;21.00;99.90
20481;DHT22;10399;50.754;3.366;2023-08-17T00:17:05;21.00;99.90
20481;DHT22;10399;50.754;3.366;2023-08-17T00:19:36;20.90;99.90
20481;DHT22;10399;50.754;3.366;2023-08-17T00:22:03;20.90;99.90
20481;DHT22;10399;50.754;3.366;2023-08-17T00:24:31;20.70;99.90
20481;DHT22;10399;50.754;3.366;2023-08-17T00:26:58;20.70;99.90
20481;DHT22;10399;50.754;3.366;2023-08-17T00:29:25;20.60;99.90
20481;DHT22;10399;50.754;3.366;2023-08-17T00:31:54;20.60;99.90
20481;DHT22;10399;50.754;3.366;2023-08-17T00:34:22;20.50;99.90
20481;DHT22;10399;50.754;3.366;2023-08-17T00:36:49;20.50;99.90
20481;DHT22;10399;50.754;3.366;2023-08-17T00:39:18;20.50;99.90
20481;DHT22;10399;50.754;3.366;2023-08-17T00:41:46;20.50;99.90
20481;DHT22;10399;50.754;3.366;2023-08-17T00:44:14;20.50;99.90
20481;DHT22;10399;50.754;3.366;2023-08-17T00:46:41;20.60;99.90
20481;DHT22;10399;50.754;3.366;2023-08-17T00:49:10;20.70;99.90
20481;DHT22;10399;50.754;3.366;2023-08-17T00:51:39;20.70;99.90
20481;DHT22;10399;50.754;3.366;2023-08-17T00:54:07;20.70;99.90
20481;DHT22;10399;50.754;3.366;2023-08-17T00:56:35;20.70;99.90
20481;DHT22;10399;50.754;3.366;2023-08-17T00:59:05;20.60;99.90
20481;DHT22;10399;50.754;3.366;2023-08-17T01:01:33;20.60;99.90
20481;DHT22;10399;50.754;3.366;2023-08-17T01:04:00;20.60;99.90
20481;DHT22;10399;50.754;3.366;2023-08-17T01:06:28;20.60;99.90
20481;DHT22;10399;50.754;3.366;2023-08-17T01:08:56;20.60;99.90
20481;DHT22;10399;50.754;3.366;2023-08-17T01:14:27;20.60;99.90
20481;DHT22;10399;50.754;3.366;2023-08-17T01:17:16;20.40;99.90
20481;DHT22;10399;50.754;3.366;2023-08-17T01:19:46;20.50;99.90
20481;DHT22;10399;50.754;3.366;2023-08-17T01:22:17;20.50;99.90
20481;DHT22;10399;50.754;3.366;2023-08-17T01:24:49;20.50;99.90
20481;DHT22;10399;50.754;3.366;2023-08-17T01:27:16;20.50;99.90
20481;DHT22;10399;50.754;3.366;2023-08-17T01:29:46;20.50;99.90
20481;DHT22;10399;50.754;3.366;2023-08-17T01:32:24;20.50;99.90
20481;DHT22;10399;50.754;3.366;2023-08-17T01:35:01;20.60;99.90
20481;DHT22;10399;50.754;3.366;2023-08-17T01:37:33;20.60;99.90
20481;DHT22;10399;50.754;3.366;2023-08-17T01:40:03;20.50;99.90
20481;DHT22;10399;50.754;3.366;2023-08-17T01:42:31;20.40;99.90
20481;DHT22;10399;50.754;3.366;2023-08-17T01:44:59;20.40;99.90
20481;DHT22;10399;50.754;3.366;2023-08-17T01:47:30;20.40;99.90
20481;DHT22;10399;50.754;3.366;2023-08-17T01:49:57;20.50;99.90
20481;DHT22;10399;50.754;3.366;2023-08-17T01:52:27;20.50;99.90
20481;DHT22;10399;50.754;3.366;2023-08-17T01:54:55;20.50;99.90
20481;DHT22;10399;50.754;3.366;2023-08-17T01:57:25;20.50;99.90
20481;DHT22;10399;50.754;3.366;2023-08-17T01:59:55;20.40;99.90
20481;DHT22;10399;50.754;3.366;2023-08-17T02:02:22;20.50;99.90
20481;DHT22;10399;50.754;3.366;2023-08-17T02:04:50;20.40;99.90
20481;DHT22;10399;50.754;3.366;2023-08-17T02:07:18;20.40;99.90
20481;DHT22;10399;50.754;3.366;2023-08-17T02:09:45;20.30;99.90
20481;DHT22;10399;50.754;3.366;2023-08-17T02:12:12;20.30;99.90
20481;DHT22;10399;50.754;3.366;2023-08-17T02:14:39;20.20;99.90
20481;DHT22;10399;50.754;3.366;2023-08-17T02:17:07;20.20;99.90
20481;DHT22;10399;50.754;3.366;2023-08-17T02:19:35;20.10;99.90
20481;DHT22;10399;50.754;3.366;2023-08-17T02:22:05;20.20;99.90
20481;DHT22;10399;50.754;3.366;2023-08-17T02:24:32;20.20;99.90
20481;DHT22;10399;50.754;3.366;2023-08-17T02:27:00;20.20;99.90
20481;DHT22;10399;50.754;3.366;2023-08-17T02:29:27;20.20;99.90
20481;DHT22;10399;50.754;3.366;2023-08-17T02:31:55;20.20;99.90
20481;DHT22;10399;50.754;3.366;2023-08-17T02:34:22;20.20;99.90
20481;DHT22;10399;50.754;3.366;2023-08-17T02:36:49;20.20;99.90
20481;DHT22;10399;50.754;3.366;2023-08-17T02:39:16;20.20;99.90
20481;DHT22;10399;50.754;3.366;2023-08-17T02:41:43;20.10;99.90
20481;DHT22;10399;50.754;3.366;2023-08-17T02:44:11;20.10;99.90
20481;DHT22;10399;50.754;3.366;2023-08-17T02:46:39;20.10;99.90
20481;DHT22;10399;50.754;3.366;2023-08-17T02:49:06;20.00;99.90
20481;DHT22;10399;50.754;3.366;2023-08-17T02:51:33;20.00;99.90
20481;DHT22;10399;50.754;3.366;2023-08-17T02:54:00;20.00;99.90
20481;DHT22;10399;50.754;3.366;2023-08-17T02:56:28;19.90;99.90
20481;DHT22;10399;50.754;3.366;2023-08-17T02:58:55;19.90;99.90
20481;DHT22;10399;50.754;3.366;2023-08-17T03:01:26;19.80;99.90
20481;DHT22;10399;50.754;3.366;2023-08-17T03:03:53;19.90;99.90
20481;DHT22;10399;50.754;3.366;2023-08-17T03:06:21;19.90;99.90
20481;DHT22;10399;50.754;3.366;2023-08-17T03:08:49;19.90;99.90
20481;DHT22;10399;50.754;3.366;2023-08-17T03:11:16;19.90;99.90
20481;DHT22;10399;50.754;3.366;2023-08-17T03:13:44;19.90;99.90
20481;DHT22;10399;50.754;3.366;2023-08-17T03:16:12;19.90;99.90
20481;DHT22;10399;50.754;3.366;2023-08-17T03:18:40;19.90;99.90
20481;DHT22;10399;50.754;3.366;2023-08-17T03:21:11;19.80;99.90
20481;DHT22;10399;50.754;3.366;2023-08-17T03:23:40;19.80;99.90
20481;DHT22;10399;50.754;3.366;2023-08-17T03:26:08;19.80;99.90
20481;DHT22;10399;50.754;3.366;2023-08-17T03:28:34;19.80;99.90
20481;DHT22;10399;50.754;3.366;2023-08-17T03:31:02;19.80;99.90
20481;DHT22;10399;50.754;3.366;2023-08-17T03:33:31;19.80;99.90
20481;DHT22;10399;50.754;3.366;2023-08-17T03:35:59;19.70;99.90
20481;DHT22;10399;50.754;3.366;2023-08-17T03:38:27;19.70;99.90
20481;DHT22;10399;50.754;3.366;2023-08-17T03:40:54;19.70;99.90
20481;DHT22;10399;50.754;3.366;2023-08-17T03:43:21;19.70;99.90
20481;DHT22;10399;50.754;3.366;2023-08-17T03:45:49;19.60;99.90
20481;DHT22;10399;50.754;3.366;2023-08-17T03:48:17;19.60;99.90
20481;DHT22;10399;50.754;3.366;2023-08-17T03:50:44;19.60;99.90
20481;DHT22;10399;50.754;3.366;2023-08-17T03:53:11;19.60;99.90
20481;DHT22;10399;50.754;3.366;2023-08-17T03:55:42;19.60;99.90
20481;DHT22;10399;50.754;3.366;2023-08-17T03:58:11;19.60;99.90
20481;DHT22;10399;50.754;3.366;2023-08-17T04:00:42;19.60;99.90
20481;DHT22;10399;50.754;3.366;2023-08-17T04:03:09;19.60;99.90
20481;DHT22;10399;50.754;3.366;2023-08-17T04:05:36;19.50;99.90
20481;DHT22;10399;50.754;3.366;2023-08-17T04:08:04;19.60;99.90
20481;DHT22;10399;50.754;3.366;2023-08-17T04:10:31;19.60;99.90
20481;DHT22;10399;50.754;3.366;2023-08-17T04:12:58;19.60;99.90
20481;DHT22;10399;50.754;3.366;2023-08-17T04:15:26;19.50;99.90
20481;DHT22;10399;50.754;3.366;2023-08-17T04:17:53;19.50;99.90
20481;DHT22;10399;50.754;3.366;2023-08-17T04:20:21;19.50;99.90
20481;DHT22;10399;50.754;3.366;2023-08-17T04:22:50;19.50;99.90
20481;DHT22;10399;50.754;3.366;2023-08-17T04:25:17;19.70;99.90
20481;DHT22;10399;50.754;3.366;2023-08-17T04:27:44;19.60;99.90
20481;DHT22;10399;50.754;3.366;2023-08-17T04:30:11;19.60;99.90
20481;DHT22;10399;50.754;3.366;2023-08-17T04:32:39;19.50;99.90
20481;DHT22;10399;50.754;3.366;2023-08-17T04:35:06;19.40;99.90
20481;DHT22;10399;50.754;3.366;2023-08-17T04:37:34;19.30;99.90
20481;DHT22;10399;50.754;3.366;2023-08-17T04:40:02;19.30;99.90
20481;DHT22;10399;50.754;3.366;2023-08-17T04:42:29;19.20;99.90
20481;DHT22;10399;50.754;3.366;2023-08-17T04:44:56;19.20;99.90
20481;DHT22;10399;50.754;3.366;2023-08-17T04:47:23;19.20;99.90
20481;DHT22;10399;50.754;3.366;2023-08-17T04:49:54;19.10;99.90
20481;DHT22;10399;50.754;3.366;2023-08-17T04:52:21;19.10;99.90
20481;DHT22;10399;50.754;3.366;2023-08-17T04:54:48;19.00;99.90
20481;DHT22;10399;50.754;3.366;2023-08-17T04:57:15;19.00;99.90
20481;DHT22;10399;50.754;3.366;2023-08-17T04:59:43;19.10;99.90
20481;DHT22;10399;50.754;3.366;2023-08-17T05:02:10;19.10;99.90
20481;DHT22;10399;50.754;3.366;2023-08-17T05:04:37;19.20;99.90
20481;DHT22;10399;50.754;3.366;2023-08-17T05:07:06;19.30;99.90
20481;DHT22;10399;50.754;3.366;2023-08-17T05:09:34;19.30;99.90
20481;DHT22;10399;50.754;3.366;2023-08-17T05:12:02;19.30;99.90
20481;DHT22;10399;50.754;3.366;2023-08-17T05:14:30;19.30;99.90
20481;DHT22;10399;50.754;3.366;2023-08-17T05:16:57;19.30;99.90
20481;DHT22;10399;50.754;3.366;2023-08-17T05:19:27;19.50;99.90
20481;DHT22;10399;50.754;3.366;2023-08-17T05:21:55;19.40;99.90
20481;DHT22;10399;50.754;3.366;2023-08-17T05:24:22;19.50;99.90
20481;DHT22;10399;50.754;3.366;2023-08-17T05:26:53;19.50;99.90
20481;DHT22;10399;50.754;3.366;2023-08-17T05:29:21;19.60;99.90
20481;DHT22;10399;50.754;3.366;2023-08-17T05:31:48;19.60;99.90
20481;DHT22;10399;50.754;3.366;2023-08-17T05:34:15;19.60;99.90
20481;DHT22;10399;50.754;3.366;2023-08-17T05:36:43;19.70;99.90
20481;DHT22;10399;50.754;3.366;2023-08-17T05:39:10;19.60;99.90
20481;DHT22;10399;50.754;3.366;2023-08-17T05:41:41;19.60;99.90
20481;DHT22;10399;50.754;3.366;2023-08-17T05:44:14;19.60;99.90
20481;DHT22;10399;50.754;3.366;2023-08-17T05:46:45;19.60;99.90
20481;DHT22;10399;50.754;3.366;2023-08-17T05:49:14;19.50;99.90
20481;DHT22;10399;50.754;3.366;2023-08-17T05:51:41;19.50;99.90
20481;DHT22;10399;50.754;3.366;2023-08-17T05:54:08;19.60;99.90
20481;DHT22;10399;50.754;3.366;2023-08-17T05:56:39;19.60;99.90
20481;DHT22;10399;50.754;3.366;2023-08-17T05:59:12;19.70;99.90
20481;DHT22;10399;50.754;3.366;2023-08-17T06:01:40;19.60;99.90
20481;DHT22;10399;50.754;3.366;2023-08-17T06:04:09;19.70;99.90
20481;DHT22;10399;50.754;3.366;2023-08-17T06:06:40;19.70;99.90
20481;DHT22;10399;50.754;3.366;2023-08-17T06:09:12;19.70;99.90
20481;DHT22;10399;50.754;3.366;2023-08-17T06:11:42;19.70;99.90
20481;DHT22;10399;50.754;3.366;2023-08-17T06:14:09;19.70;99.90
20481;DHT22;10399;50.754;3.366;2023-08-17T06:16:37;19.70;99.90
20481;DHT22;10399;50.754;3.366;2023-08-17T06:19:07;19.70;99.90
20481;DHT22;10399;50.754;3.366;2023-08-17T06:21:35;19.70;99.90
20481;DHT22;10399;50.754;3.366;2023-08-17T06:24:04;19.80;99.90
20481;DHT22;10399;50.754;3.366;2023-08-17T06:26:34;19.80;99.90
20481;DHT22;10399;50.754;3.366;2023-08-17T06:29:02;19.90;99.90
20481;DHT22;10399;50.754;3.366;2023-08-17T06:31:30;20.00;99.90
20481;DHT22;10399;50.754;3.366;2023-08-17T06:33:57;20.20;99.90
20481;DHT22;10399;50.754;3.366;2023-08-17T06:36:32;20.20;99.90
20481;DHT22;10399;50.754;3.366;2023-08-17T06:39:00;20.20;99.90
20481;DHT22;10399;50.754;3.366;2023-08-17T06:41:30;20.10;99.90
20481;DHT22;10399;50.754;3.366;2023-08-17T06:43:57;20.00;99.90
20481;DHT22;10399;50.754;3.366;2023-08-17T06:46:25;20.30;99.90
20481;DHT22;10399;50.754;3.366;2023-08-17T06:48:52;20.40;99.90
20481;DHT22;10399;50.754;3.366;2023-08-17T06:51:20;20.40;99.90
20481;DHT22;10399;50.754;3.366;2023-08-17T06:53:47;20.60;99.90
20481;DHT22;10399;50.754;3.366;2023-08-17T06:56:21;20.70;99.90
20481;DHT22;10399;50.754;3.366;2023-08-17T06:58:52;20.80;99.90
20481;DHT22;10399;50.754;3.366;2023-08-17T07:01:19;21.00;99.90
20481;DHT22;10399;50.754;3.366;2023-08-17T07:03:47;21.00;99.90
20481;DHT22;10399;50.754;3.366;2023-08-17T07:06:15;21.20;99.90
20481;DHT22;10399;50.754;3.366;2023-08-17T07:08:42;21.10;99.90
20481;DHT22;10399;50.754;3.366;2023-08-17T07:11:09;21.20;99.90
20481;DHT22;10399;50.754;3.366;2023-08-17T07:13:37;21.20;99.90
20481;DHT22;10399;50.754;3.366;2023-08-17T07:16:04;21.30;99.90
20481;DHT22;10399;50.754;3.366;2023-08-17T07:18:31;21.40;99.90
20481;DHT22;10399;50.754;3.366;2023-08-17T07:21:00;21.50;99.90
20481;DHT22;10399;50.754;3.366;2023-08-17T07:23:27;21.80;99.90
20481;DHT22;10399;50.754;3.366;2023-08-17T07:25:54;22.00;99.90
20481;DHT22;10399;50.754;3.366;2023-08-17T07:28:25;22.20;99.90
20481;DHT22;10399;50.754;3.366;2023-08-17T07:30:52;22.10;99.90
20481;DHT22;10399;50.754;3.366;2023-08-17T07:33:19;22.30;99.90
20481;DHT22;10399;50.754;3.366;2023-08-17T07:35:46;22.40;99.90
20481;DHT22;10399;50.754;3.366;2023-08-17T07:38:15;22.30;99.90
20481;DHT22;10399;50.754;3.366;2023-08-17T07:40:44;22.40;99.90
20481;DHT22;10399;50.754;3.366;2023-08-17T07:43:17;22.60;99.90
20481;DHT22;10399;50.754;3.366;2023-08-17T07:45:57;22.70;99.90
20481;DHT22;10399;50.754;3.366;2023-08-17T07:48:27;22.90;99.90
20481;DHT22;10399;50.754;3.366;2023-08-17T07:51:00;22.90;99.90
20481;DHT22;10399;50.754;3.366;2023-08-17T07:53:27;23.20;99.90
20481;DHT22;10399;50.754;3.366;2023-08-17T07:55:54;23.30;99.90
20481;DHT22;10399;50.754;3.366;2023-08-17T07:58:24;23.20;99.90
20481;DHT22;10399;50.754;3.366;2023-08-17T08:00:51;23.20;99.90
20481;DHT22;10399;50.754;3.366;2023-08-17T08:03:22;23.40;99.90
20481;DHT22;10399;50.754;3.366;2023-08-17T08:05:51;23.30;99.90
20481;DHT22;10399;50.754;3.366;2023-08-17T08:08:19;23.60;99.90
20481;DHT22;10399;50.754;3.366;2023-08-17T08:10:47;23.70;99.90
20481;DHT22;10399;50.754;3.366;2023-08-17T08:13:14;23.80;99.90
20481;DHT22;10399;50.754;3.366;2023-08-17T08:15:44;23.90;99.90
20481;DHT22;10399;50.754;3.366;2023-08-17T08:18:12;24.00;99.90
20481;DHT22;10399;50.754;3.366;2023-08-17T08:20:39;24.00;99.90
20481;DHT22;10399;50.754;3.366;2023-08-17T08:23:06;24.10;99.90
20481;DHT22;10399;50.754;3.366;2023-08-17T08:25:34;24.10;99.90
20481;DHT22;10399;50.754;3.366;2023-08-17T08:28:02;24.30;99.90
20481;DHT22;10399;50.754;3.366;2023-08-17T08:30:29;24.30;99.90
20481;DHT22;10399;50.754;3.366;2023-08-17T08:33:01;24.40;99.90
20481;DHT22;10399;50.754;3.366;2023-08-17T08:35:32;24.40;99.90
20481;DHT22;10399;50.754;3.366;2023-08-17T08:38:03;24.60;99.90
20481;DHT22;10399;50.754;3.366;2023-08-17T08:40:58;24.60;99.90
20481;DHT22;10399;50.754;3.366;2023-08-17T08:43:41;24.80;99.90
20481;DHT22;10399;50.754;3.366;2023-08-17T08:46:33;25.00;99.90
20481;DHT22;10399;50.754;3.366;2023-08-17T08:49:19;25.10;99.90
20481;DHT22;10399;50.754;3.366;2023-08-17T08:51:53;25.30;99.90
20481;DHT22;10399;50.754;3.366;2023-08-17T08:54:28;25.20;99.90
20481;DHT22;10399;50.754;3.366;2023-08-17T08:57:02;24.90;99.90
20481;DHT22;10399;50.754;3.366;2023-08-17T08:59:38;24.80;99.90
20481;DHT22;10399;50.754;3.366;2023-08-17T09:02:16;24.80;99.90
20481;DHT22;10399;50.754;3.366;2023-08-17T09:05:04;24.80;99.90
20481;DHT22;10399;50.754;3.366;2023-08-17T09:07:45;24.40;99.90
20481;DHT22;10399;50.754;3.366;2023-08-17T09:10:25;24.50;99.90
20481;DHT22;10399;50.754;3.366;2023-08-17T09:12:59;24.40;99.90
20481;DHT22;10399;50.754;3.366;2023-08-17T09:15:28;24.50;99.90
20481;DHT22;10399;50.754;3.366;2023-08-17T09:17:57;24.50;99.90
20481;DHT22;10399;50.754;3.366;2023-08-17T09:20:42;24.50;99.90
20481;DHT22;10399;50.754;3.366;2023-08-17T09:23:17;24.50;99.90
20481;DHT22;10399;50.754;3.366;2023-08-17T09:25:47;24.50;99.90
20481;DHT22;10399;50.754;3.366;2023-08-17T09:28:17;24.40;99.90
20481;DHT22;10399;50.754;3.366;2023-08-17T09:30:57;24.20;99.90
20481;DHT22;10399;50.754;3.366;2023-08-17T09:33:29;24.30;99.90
20481;DHT22;10399;50.754;3.366;2023-08-17T09:35:59;24.40;99.90
20481;DHT22;10399;50.754;3.366;2023-08-17T09:38:29;24.50;99.90
20481;DHT22;10399;50.754;3.366;2023-08-17T09:40:59;24.40;99.90
20481;DHT22;10399;50.754;3.366;2023-08-17T09:43:27;24.30;99.90
20481;DHT22;10399;50.754;3.366;2023-08-17T09:46:01;24.20;99.90
20481;DHT22;10399;50.754;3.366;2023-08-17T09:48:32;24.30;99.90
20481;DHT22;10399;50.754;3.366;2023-08-17T09:51:02;24.20;99.90
20481;DHT22;10399;50.754;3.366;2023-08-17T09:53:36;24.40;99.90
20481;DHT22;10399;50.754;3.366;2023-08-17T09:56:06;24.40;99.90
20481;DHT22;10399;50.754;3.366;2023-08-17T09:58:44;24.60;99.90
20481;DHT22;10399;50.754;3.366;2023-08-17T10:01:14;24.60;99.90
20481;DHT22;10399;50.754;3.366;2023-08-17T10:03:44;24.70;99.90
20481;DHT22;10399;50.754;3.366;2023-08-17T10:06:17;24.90;99.90
20481;DHT22;10399;50.754;3.366;2023-08-17T10:08:53;24.80;99.90
20481;DHT22;10399;50.754;3.366;2023-08-17T10:11:22;25.00;99.90
20481;DHT22;10399;50.754;3.366;2023-08-17T10:14:01;25.10;99.90
20481;DHT22;10399;50.754;3.366;2023-08-17T10:16:50;25.30;99.90
20481;DHT22;10399;50.754;3.366;2023-08-17T10:22:06;25.50;99.90
20481;DHT22;10399;50.754;3.366;2023-08-17T10:24:35;25.30;99.90
20481;DHT22;10399;50.754;3.366;2023-08-17T10:27:06;25.00;99.90
20481;DHT22;10399;50.754;3.366;2023-08-17T10:29:33;25.00;99.90
20481;DHT22;10399;50.754;3.366;2023-08-17T10:32:01;24.60;99.90
20481;DHT22;10399;50.754;3.366;2023-08-17T10:34:29;24.70;99.90
20481;DHT22;10399;50.754;3.366;2023-08-17T10:36:58;24.80;99.90
20481;DHT22;10399;50.754;3.366;2023-08-17T10:39:28;24.60;99.90
20481;DHT22;10399;50.754;3.366;2023-08-17T10:41:58;24.70;99.90
20481;DHT22;10399;50.754;3.366;2023-08-17T10:44:45;24.80;99.90
20481;DHT22;10399;50.754;3.366;2023-08-17T10:47:27;25.00;99.90
20481;DHT22;10399;50.754;3.366;2023-08-17T10:50:06;25.00;99.90
20481;DHT22;10399;50.754;3.366;2023-08-17T10:52:35;25.10;99.90
20481;DHT22;10399;50.754;3.366;2023-08-17T10:55:06;24.90;99.90
20481;DHT22;10399;50.754;3.366;2023-08-17T10:57:36;24.80;99.90
20481;DHT22;10399;50.754;3.366;2023-08-17T11:02:55;24.90;99.90
20481;DHT22;10399;50.754;3.366;2023-08-17T11:05:48;25.00;99.90
20481;DHT22;10399;50.754;3.366;2023-08-17T11:11:13;25.20;99.90
20481;DHT22;10399;50.754;3.366;2023-08-17T11:13:42;25.10;99.90
20481;DHT22;10399;50.754;3.366;2023-08-17T11:16:12;25.10;99.90
20481;DHT22;10399;50.754;3.366;2023-08-17T11:18:46;25.30;99.90
20481;DHT22;10399;50.754;3.366;2023-08-17T11:21:16;25.40;99.90
20481;DHT22;10399;50.754;3.366;2023-08-17T11:23:46;25.50;99.90
20481;DHT22;10399;50.754;3.366;2023-08-17T11:26:17;25.50;99.90
20481;DHT22;10399;50.754;3.366;2023-08-17T11:28:45;25.30;99.90
20481;DHT22;10399;50.754;3.366;2023-08-17T11:31:16;25.60;99.90
20481;DHT22;10399;50.754;3.366;2023-08-17T11:33:44;25.70;99.90
20481;DHT22;10399;50.754;3.366;2023-08-17T11:36:15;25.80;99.90
20481;DHT22;10399;50.754;3.366;2023-08-17T11:38:43;25.80;99.90
20481;DHT22;10399;50.754;3.366;2023-08-17T11:41:11;26.00;99.90
20481;DHT22;10399;50.754;3.366;2023-08-17T11:43:43;25.90;99.90
20481;DHT22;10399;50.754;3.366;2023-08-17T11:46:17;26.10;99.90
20481;DHT22;10399;50.754;3.366;2023-08-17T11:48:49;26.30;99.90
20481;DHT22;10399;50.754;3.366;2023-08-17T11:51:28;26.40;99.90
20481;DHT22;10399;50.754;3.366;2023-08-17T11:54:00;26.40;99.90
20481;DHT22;10399;50.754;3.366;2023-08-17T11:56:30;26.40;99.90
20481;DHT22;10399;50.754;3.366;2023-08-17T11:58:58;25.90;99.90
20481;DHT22;10399;50.754;3.366;2023-08-17T12:01:33;26.00;99.90
20481;DHT22;10399;50.754;3.366;2023-08-17T12:04:06;26.00;99.90
20481;DHT22;10399;50.754;3.366;2023-08-17T12:06:34;26.10;99.90
20481;DHT22;10399;50.754;3.366;2023-08-17T12:09:04;25.90;99.90
20481;DHT22;10399;50.754;3.366;2023-08-17T12:11:33;25.70;99.90
20481;DHT22;10399;50.754;3.366;2023-08-17T12:14:08;25.20;99.90
20481;DHT22;10399;50.754;3.366;2023-08-17T12:16:47;25.30;99.90
20481;DHT22;10399;50.754;3.366;2023-08-17T12:19:19;25.20;99.90
20481;DHT22;10399;50.754;3.366;2023-08-17T12:21:48;25.20;99.90
20481;DHT22;10399;50.754;3.366;2023-08-17T12:24:16;25.30;99.90
20481;DHT22;10399;50.754;3.366;2023-08-17T12:26:44;25.30;99.90
20481;DHT22;10399;50.754;3.366;2023-08-17T12:29:11;25.30;99.90
20481;DHT22;10399;50.754;3.366;2023-08-17T12:31:38;25.30;99.90
20481;DHT22;10399;50.754;3.366;2023-08-17T12:34:07;25.10;99.90
20481;DHT22;10399;50.754;3.366;2023-08-17T12:36:35;25.30;99.90
20481;DHT22;10399;50.754;3.366;2023-08-17T12:39:05;25.50;99.90
20481;DHT22;10399;50.754;3.366;2023-08-17T12:41:32;25.60;99.90
20481;DHT22;10399;50.754;3.366;2023-08-17T12:44:00;25.70;99.90
20481;DHT22;10399;50.754;3.366;2023-08-17T12:46:28;25.70;99.90
20481;DHT22;10399;50.754;3.366;2023-08-17T12:48:59;25.90;99.90
20481;DHT22;10399;50.754;3.366;2023-08-17T12:51:28;26.00;99.90
20481;DHT22;10399;50.754;3.366;2023-08-17T12:53:55;25.90;99.90
20481;DHT22;10399;50.754;3.366;2023-08-17T12:56:23;25.70;99.90
20481;DHT22;10399;50.754;3.366;2023-08-17T12:58:50;25.90;99.90
20481;DHT22;10399;50.754;3.366;2023-08-17T13:01:19;25.70;99.90
20481;DHT22;10399;50.754;3.366;2023-08-17T13:03:46;25.90;99.90
20481;DHT22;10399;50.754;3.366;2023-08-17T13:06:15;26.00;99.90
20481;DHT22;10399;50.754;3.366;2023-08-17T13:08:43;26.10;99.90
20481;DHT22;10399;50.754;3.366;2023-08-17T13:11:16;26.10;99.90
20481;DHT22;10399;50.754;3.366;2023-08-17T13:13:47;26.10;99.90
20481;DHT22;10399;50.754;3.366;2023-08-17T13:16:19;26.40;99.90
20481;DHT22;10399;50.754;3.366;2023-08-17T13:18:53;26.20;99.90
20481;DHT22;10399;50.754;3.366;2023-08-17T13:21:23;26.60;99.90
20481;DHT22;10399;50.754;3.366;2023-08-17T13:23:50;27.00;99.90
20481;DHT22;10399;50.754;3.366;2023-08-17T13:26:22;27.30;99.90
20481;DHT22;10399;50.754;3.366;2023-08-17T13:28:50;27.50;99.90
20481;DHT22;10399;50.754;3.366;2023-08-17T13:31:18;27.70;99.90
20481;DHT22;10399;50.754;3.366;2023-08-17T13:33:51;27.90;99.90
20481;DHT22;10399;50.754;3.366;2023-08-17T13:36:19;28.10;99.90
20481;DHT22;10399;50.754;3.366;2023-08-17T13:38:47;28.50;99.90
20481;DHT22;10399;50.754;3.366;2023-08-17T13:41:17;28.60;99.90
20481;DHT22;10399;50.754;3.366;2023-08-17T13:43:46;29.00;99.90
20481;DHT22;10399;50.754;3.366;2023-08-17T13:46:13;28.80;99.90
20481;DHT22;10399;50.754;3.366;2023-08-17T13:48:40;29.00;99.90
20481;DHT22;10399;50.754;3.366;2023-08-17T13:51:12;29.40;99.90
20481;DHT22;10399;50.754;3.366;2023-08-17T13:53:44;29.50;99.90
20481;DHT22;10399;50.754;3.366;2023-08-17T13:56:16;29.60;99.90
20481;DHT22;10399;50.754;3.366;2023-08-17T13:58:44;29.50;99.90
20481;DHT22;10399;50.754;3.366;2023-08-17T14:01:16;29.30;99.90
20481;DHT22;10399;50.754;3.366;2023-08-17T14:03:46;29.30;99.90
20481;DHT22;10399;50.754;3.366;2023-08-17T14:06:13;29.50;99.90
20481;DHT22;10399;50.754;3.366;2023-08-17T14:08:41;29.20;99.90
20481;DHT22;10399;50.754;3.366;2023-08-17T14:11:09;28.90;99.90
20481;DHT22;10399;50.754;3.366;2023-08-17T14:13:37;28.40;99.90
20481;DHT22;10399;50.754;3.366;2023-08-17T14:16:11;28.20;99.90
20481;DHT22;10399;50.754;3.366;2023-08-17T14:18:46;28.20;99.90
20481;DHT22;10399;50.754;3.366;2023-08-17T14:21:17;28.00;99.90
20481;DHT22;10399;50.754;3.366;2023-08-17T14:23:46;27.90;99.90
20481;DHT22;10399;50.754;3.366;2023-08-17T14:26:18;27.60;99.90
20481;DHT22;10399;50.754;3.366;2023-08-17T14:28:52;27.70;99.90
20481;DHT22;10399;50.754;3.366;2023-08-17T14:31:19;27.70;99.90
20481;DHT22;10399;50.754;3.366;2023-08-17T14:33:48;27.40;99.90
20481;DHT22;10399;50.754;3.366;2023-08-17T14:36:22;26.90;99.90
20481;DHT22;10399;50.754;3.366;2023-08-17T14:38:56;26.90;99.90
20481;DHT22;10399;50.754;3.366;2023-08-17T14:41:27;27.10;99.90
20481;DHT22;10399;50.754;3.366;2023-08-17T14:44:00;27.40;99.90
20481;DHT22;10399;50.754;3.366;2023-08-17T14:46:34;27.60;99.90
20481;DHT22;10399;50.754;3.366;2023-08-17T14:49:02;27.80;99.90
20481;DHT22;10399;50.754;3.366;2023-08-17T14:51:29;27.80;99.90
20481;DHT22;10399;50.754;3.366;2023-08-17T14:53:58;27.70;99.90
20481;DHT22;10399;50.754;3.366;2023-08-17T14:56:26;27.90;99.90
20481;DHT22;10399;50.754;3.366;2023-08-17T14:58:53;27.80;99.90
20481;DHT22;10399;50.754;3.366;2023-08-17T15:01:20;27.60;99.90
20481;DHT22;10399;50.754;3.366;2023-08-17T15:03:48;27.70;99.90
20481;DHT22;10399;50.754;3.366;2023-08-17T15:06:20;27.70;99.90
20481;DHT22;10399;50.754;3.366;2023-08-17T15:09:00;27.50;99.90
20481;DHT22;10399;50.754;3.366;2023-08-17T15:11:29;27.60;99.90
20481;DHT22;10399;50.754;3.366;2023-08-17T15:13:57;27.70;99.90
20481;DHT22;10399;50.754;3.366;2023-08-17T15:16:23;27.70;99.90
20481;DHT22;10399;50.754;3.366;2023-08-17T15:18:57;27.70;99.90
20481;DHT22;10399;50.754;3.366;2023-08-17T15:21:32;27.60;99.90
20481;DHT22;10399;50.754;3.366;2023-08-17T15:24:03;27.60;99.90
20481;DHT22;10399;50.754;3.366;2023-08-17T15:26:31;27.40;99.90
20481;DHT22;10399;50.754;3.366;2023-08-17T15:28:58;27.30;99.90
20481;DHT22;10399;50.754;3.366;2023-08-17T15:31:25;27.20;99.90
20481;DHT22;10399;50.754;3.366;2023-08-17T15:33:53;27.20;99.90
20481;DHT22;10399;50.754;3.366;2023-08-17T15:36:20;27.20;99.90
20481;DHT22;10399;50.754;3.366;2023-08-17T15:38:51;27.10;99.90
20481;DHT22;10399;50.754;3.366;2023-08-17T15:41:18;27.00;99.90
20481;DHT22;10399;50.754;3.366;2023-08-17T15:43:46;26.90;99.90
20481;DHT22;10399;50.754;3.366;2023-08-17T15:46:14;26.70;99.90
20481;DHT22;10399;50.754;3.366;2023-08-17T15:48:42;26.70;99.90
20481;DHT22;10399;50.754;3.366;2023-08-17T15:51:11;26.60;99.90
20481;DHT22;10399;50.754;3.366;2023-08-17T15:53:38;26.50;99.90
20481;DHT22;10399;50.754;3.366;2023-08-17T15:56:10;26.50;99.90
20481;DHT22;10399;50.754;3.366;2023-08-17T15:58:40;26.40;99.90